sensor_id;sensor_type;location;lat;lon;timestamp;temperature;humidity
10903;DHT22;5504;47.312;11.060;2023-04-26T00:02:09;8.10;90.70
10903;DHT22;5504;47.312;11.060;2023-04-26T00:04:36;8.00;90.80
10903;DHT22;5504;47.312;11.060;2023-04-26T00:07:02;8.00;91.10
10903;DHT22;5504;47.312;11.060;2023-04-26T00:09:28;7.90;91.00
10903;DHT22;5504;47.312;11.060;2023-04-26T00:11:54;7.90;91.00
10903;DHT22;5504;47.312;11.060;2023-04-26T00:14:19;7.80;91.10
10903;DHT22;5504;47.312;11.060;2023-04-26T00:16:45;7.70;91.20
10903;DHT22;5504;47.312;11.060;2023-04-26T00:19:11;7.50;91.50
10903;DHT22;5504;47.312;11.060;2023-04-26T00:21:38;7.60;92.10
10903;DHT22;5504;47.312;11.060;2023-04-26T00:24:04;7.60;91.90
10903;DHT22;5504;47.312;11.060;2023-04-26T00:26:33;7.60;91.80
10903;DHT22;5504;47.312;11.060;2023-04-26T00:29:08;7.80;91.90
10903;DHT22;5504;47.312;11.060;2023-04-26T00:31:34;7.80;91.50
10903;DHT22;5504;47.312;11.060;2023-04-26T00:33:59;7.80;91.40
10903;DHT22;5504;47.312;11.060;2023-04-26T00:36:25;7.80;91.60
10903;DHT22;5504;47.312;11.060;2023-04-26T00:38:52;7.80;91.50
10903;DHT22;5504;47.312;11.060;2023-04-26T00:41:17;7.80;91.80
10903;DHT22;5504;47.312;11.060;2023-04-26T00:43:43;7.80;92.00
10903;DHT22;5504;47.312;11.060;2023-04-26T00:46:09;7.90;92.10
10903;DHT22;5504;47.312;11.060;2023-04-26T00:48:36;7.90;91.90
10903;DHT22;5504;47.312;11.060;2023-04-26T00:51:02;7.90;91.70
10903;DHT22;5504;47.312;11.060;2023-04-26T00:53:29;8.00;91.50
10903;DHT22;5504;47.312;11.060;2023-04-26T00:55:56;8.00;91.30
10903;DHT22;5504;47.312;11.060;2023-04-26T00:58:22;8.00;91.10
10903;DHT22;5504;47.312;11.060;2023-04-26T01:31:12;7.80;92.30
10903;DHT22;5504;47.312;11.060;2023-04-26T01:33:38;8.10;91.90
10903;DHT22;5504;47.312;11.060;2023-04-26T01:36:08;8.00;91.50
10903;DHT22;5504;47.312;11.060;2023-04-26T01:38:35;8.00;91.80
10903;DHT22;5504;47.312;11.060;2023-04-26T01:41:01;8.00;91.80
10903;DHT22;5504;47.312;11.060;2023-04-26T01:43:26;8.00;91.80
10903;DHT22;5504;47.312;11.060;2023-04-26T01:45:52;8.10;91.60
10903;DHT22;5504;47.312;11.060;2023-04-26T01:48:18;8.10;91.50
10903;DHT22;5504;47.312;11.060;2023-04-26T01:50:44;8.10;91.70
10903;DHT22;5504;47.312;11.060;2023-04-26T01:53:10;8.10;91.70
10903;DHT22;5504;47.312;11.060;2023-04-26T01:55:35;8.00;91.60
10903;DHT22;5504;47.312;11.060;2023-04-26T01:58:01;7.90;91.70
10903;DHT22;5504;47.312;11.060;2023-04-26T02:00:28;8.00;92.10
10903;DHT22;5504;47.312;11.060;2023-04-26T02:02:54;7.80;91.70
10903;DHT22;5504;47.312;11.060;2023-04-26T02:05:20;7.80;91.90
10903;DHT22;5504;47.312;11.060;2023-04-26T02:07:46;8.10;91.90
10903;DHT22;5504;47.312;11.060;2023-04-26T02:10:12;8.10;91.70
10903;DHT22;5504;47.312;11.060;2023-04-26T02:12:38;8.10;91.70
10903;DHT22;5504;47.312;11.060;2023-04-26T02:15:04;8.10;91.70
10903;DHT22;5504;47.312;11.060;2023-04-26T02:17:31;8.10;91.70
10903;DHT22;5504;47.312;11.060;2023-04-26T02:19:56;8.00;91.50
10903;DHT22;5504;47.312;11.060;2023-04-26T02:22:23;7.90;91.60
10903;DHT22;5504;47.312;11.060;2023-04-26T02:24:50;7.80;91.70
10903;DHT22;5504;47.312;11.060;2023-04-26T02:27:17;7.80;92.00
10903;DHT22;5504;47.312;11.060;2023-04-26T02:29:43;7.80;92.00
10903;DHT22;5504;47.312;11.060;2023-04-26T02:32:08;7.80;91.90
10903;DHT22;5504;47.312;11.060;2023-04-26T02:34:34;7.70;92.10
10903;DHT22;5504;47.312;11.060;2023-04-26T02:37:00;7.60;92.20
10903;DHT22;5504;47.312;11.060;2023-04-26T02:39:26;7.60;92.60
10903;DHT22;5504;47.312;11.060;2023-04-26T02:41:52;7.60;92.50
10903;DHT22;5504;47.312;11.060;2023-04-26T02:44:18;7.70;92.60
10903;DHT22;5504;47.312;11.060;2023-04-26T02:46:43;7.80;92.60
10903;DHT22;5504;47.312;11.060;2023-04-26T02:49:09;7.80;92.40
10903;DHT22;5504;47.312;11.060;2023-04-26T02:51:35;7.90;92.40
10903;DHT22;5504;47.312;11.060;2023-04-26T02:54:00;8.00;92.00
10903;DHT22;5504;47.312;11.060;2023-04-26T02:56:27;7.90;91.90
10903;DHT22;5504;47.312;11.060;2023-04-26T02:58:53;7.70;91.90
10903;DHT22;5504;47.312;11.060;2023-04-26T03:01:19;7.70;92.10
10903;DHT22;5504;47.312;11.060;2023-04-26T03:03:44;7.70;92.10
10903;DHT22;5504;47.312;11.060;2023-04-26T03:06:10;7.70;92.20
10903;DHT22;5504;47.312;11.060;2023-04-26T03:08:36;7.70;92.10
10903;DHT22;5504;47.312;11.060;2023-04-26T03:11:02;7.70;92.00
10903;DHT22;5504;47.312;11.060;2023-04-26T03:13:27;7.60;92.00
10903;DHT22;5504;47.312;11.060;2023-04-26T03:15:53;7.60;92.20
10903;DHT22;5504;47.312;11.060;2023-04-26T03:18:19;7.60;92.60
10903;DHT22;5504;47.312;11.060;2023-04-26T03:20:45;7.50;92.30
10903;DHT22;5504;47.312;11.060;2023-04-26T03:23:11;7.50;92.60
10903;DHT22;5504;47.312;11.060;2023-04-26T03:25:36;7.60;92.70
10903;DHT22;5504;47.312;11.060;2023-04-26T03:28:02;7.50;92.40
10903;DHT22;5504;47.312;11.060;2023-04-26T03:30:28;7.50;92.30
10903;DHT22;5504;47.312;11.060;2023-04-26T03:32:54;7.50;92.30
10903;DHT22;5504;47.312;11.060;2023-04-26T03:35:21;7.60;92.30
10903;DHT22;5504;47.312;11.060;2023-04-26T03:37:47;7.60;92.10
10903;DHT22;5504;47.312;11.060;2023-04-26T03:40:13;7.50;91.90
10903;DHT22;5504;47.312;11.060;2023-04-26T03:42:38;7.50;92.10
10903;DHT22;5504;47.312;11.060;2023-04-26T03:45:04;7.40;92.00
10903;DHT22;5504;47.312;11.060;2023-04-26T03:47:30;7.40;91.90
10903;DHT22;5504;47.312;11.060;2023-04-26T03:49:56;7.20;91.90
10903;DHT22;5504;47.312;11.060;2023-04-26T03:52:22;7.20;92.10
10903;DHT22;5504;47.312;11.060;2023-04-26T03:54:48;7.20;92.10
10903;DHT22;5504;47.312;11.060;2023-04-26T03:57:14;7.20;92.20
10903;DHT22;5504;47.312;11.060;2023-04-26T03:59:39;7.20;92.00
10903;DHT22;5504;47.312;11.060;2023-04-26T04:02:05;7.10;92.10
10903;DHT22;5504;47.312;11.060;2023-04-26T04:04:31;7.10;92.20
10903;DHT22;5504;47.312;11.060;2023-04-26T04:06:58;7.10;92.10
10903;DHT22;5504;47.312;11.060;2023-04-26T04:09:23;7.10;92.10
10903;DHT22;5504;47.312;11.060;2023-04-26T04:11:49;7.00;91.80
10903;DHT22;5504;47.312;11.060;2023-04-26T04:14:16;7.00;91.90
10903;DHT22;5504;47.312;11.060;2023-04-26T04:16:41;6.90;91.80
10903;DHT22;5504;47.312;11.060;2023-04-26T04:19:07;6.90;91.90
10903;DHT22;5504;47.312;11.060;2023-04-26T04:21:33;6.90;92.00
10903;DHT22;5504;47.312;11.060;2023-04-26T04:23:59;6.90;91.90
10903;DHT22;5504;47.312;11.060;2023-04-26T04:26:25;7.00;91.70
10903;DHT22;5504;47.312;11.060;2023-04-26T04:28:53;6.90;91.60
10903;DHT22;5504;47.312;11.060;2023-04-26T04:31:20;6.80;91.40
10903;DHT22;5504;47.312;11.060;2023-04-26T04:33:46;6.60;91.40
10903;DHT22;5504;47.312;11.060;2023-04-26T04:36:12;6.60;92.00
10903;DHT22;5504;47.312;11.060;2023-04-26T04:38:41;6.50;92.40
10903;DHT22;5504;47.312;11.060;2023-04-26T04:41:07;6.50;92.50
10903;DHT22;5504;47.312;11.060;2023-04-26T04:43:33;6.50;92.50
10903;DHT22;5504;47.312;11.060;2023-04-26T04:45:59;6.30;92.80
10903;DHT22;5504;47.312;11.060;2023-04-26T04:48:24;6.30;93.10
10903;DHT22;5504;47.312;11.060;2023-04-26T04:50:50;6.50;93.10
10903;DHT22;5504;47.312;11.060;2023-04-26T04:53:17;6.70;93.10
10903;DHT22;5504;47.312;11.060;2023-04-26T04:55:43;6.60;92.90
10903;DHT22;5504;47.312;11.060;2023-04-26T04:58:08;6.70;92.80
10903;DHT22;5504;47.312;11.060;2023-04-26T05:00:34;6.70;92.50
10903;DHT22;5504;47.312;11.060;2023-04-26T05:03:02;6.90;92.70
10903;DHT22;5504;47.312;11.060;2023-04-26T05:05:28;7.00;92.30
10903;DHT22;5504;47.312;11.060;2023-04-26T05:07:53;7.00;92.10
10903;DHT22;5504;47.312;11.060;2023-04-26T05:10:19;7.10;92.20
10903;DHT22;5504;47.312;11.060;2023-04-26T05:12:45;7.10;91.90
10903;DHT22;5504;47.312;11.060;2023-04-26T05:15:11;7.10;92.00
10903;DHT22;5504;47.312;11.060;2023-04-26T05:17:37;7.20;92.20
10903;DHT22;5504;47.312;11.060;2023-04-26T05:20:03;7.30;92.20
10903;DHT22;5504;47.312;11.060;2023-04-26T05:22:31;7.30;92.10
10903;DHT22;5504;47.312;11.060;2023-04-26T05:24:59;7.30;92.00
10903;DHT22;5504;47.312;11.060;2023-04-26T05:27:27;7.30;92.00
10903;DHT22;5504;47.312;11.060;2023-04-26T05:29:53;7.40;92.10
10903;DHT22;5504;47.312;11.060;2023-04-26T05:32:18;7.60;92.10
10903;DHT22;5504;47.312;11.060;2023-04-26T05:34:44;7.70;92.20
10903;DHT22;5504;47.312;11.060;2023-04-26T05:37:10;7.80;91.80
10903;DHT22;5504;47.312;11.060;2023-04-26T05:39:36;7.80;91.80
10903;DHT22;5504;47.312;11.060;2023-04-26T05:42:02;7.70;91.50
10903;DHT22;5504;47.312;11.060;2023-04-26T05:44:28;7.50;91.90
10903;DHT22;5504;47.312;11.060;2023-04-26T05:46:54;6.80;93.30
10903;DHT22;5504;47.312;11.060;2023-04-26T05:49:20;6.90;93.80
10903;DHT22;5504;47.312;11.060;2023-04-26T05:51:46;7.20;93.70
10903;DHT22;5504;47.312;11.060;2023-04-26T05:54:11;7.20;92.90
10903;DHT22;5504;47.312;11.060;2023-04-26T05:56:37;7.60;93.20
10903;DHT22;5504;47.312;11.060;2023-04-26T05:59:03;8.10;93.00
10903;DHT22;5504;47.312;11.060;2023-04-26T06:01:28;8.60;92.40
10903;DHT22;5504;47.312;11.060;2023-04-26T06:03:54;9.10;91.40
10903;DHT22;5504;47.312;11.060;2023-04-26T06:06:20;9.60;90.10
10903;DHT22;5504;47.312;11.060;2023-04-26T06:08:45;9.80;86.60
10903;DHT22;5504;47.312;11.060;2023-04-26T06:11:11;10.10;85.10
10903;DHT22;5504;47.312;11.060;2023-04-26T06:13:37;9.50;84.10
10903;DHT22;5504;47.312;11.060;2023-04-26T06:16:02;9.70;85.80
10903;DHT22;5504;47.312;11.060;2023-04-26T06:18:28;9.80;84.40
10903;DHT22;5504;47.312;11.060;2023-04-26T06:20:54;9.80;85.40
10903;DHT22;5504;47.312;11.060;2023-04-26T06:23:19;9.80;87.50
10903;DHT22;5504;47.312;11.060;2023-04-26T06:25:45;10.50;86.90
10903;DHT22;5504;47.312;11.060;2023-04-26T06:28:11;9.80;86.40
10903;DHT22;5504;47.312;11.060;2023-04-26T06:30:37;9.10;89.70
10903;DHT22;5504;47.312;11.060;2023-04-26T06:33:03;8.80;90.50
10903;DHT22;5504;47.312;11.060;2023-04-26T06:35:29;9.50;90.70
10903;DHT22;5504;47.312;11.060;2023-04-26T06:37:54;10.40;88.70
10903;DHT22;5504;47.312;11.060;2023-04-26T06:40:20;10.80;85.70
10903;DHT22;5504;47.312;11.060;2023-04-26T06:42:46;10.50;84.80
10903;DHT22;5504;47.312;11.060;2023-04-26T06:45:12;9.50;84.70
10903;DHT22;5504;47.312;11.060;2023-04-26T06:47:38;9.50;89.10
10903;DHT22;5504;47.312;11.060;2023-04-26T06:50:04;10.60;87.40
10903;DHT22;5504;47.312;11.060;2023-04-26T06:52:30;11.30;84.80
10903;DHT22;5504;47.312;11.060;2023-04-26T06:54:56;10.90;81.50
10903;DHT22;5504;47.312;11.060;2023-04-26T06:57:24;10.80;82.00
10903;DHT22;5504;47.312;11.060;2023-04-26T06:59:50;10.40;82.10
10903;DHT22;5504;47.312;11.060;2023-04-26T07:02:16;9.90;84.30
10903;DHT22;5504;47.312;11.060;2023-04-26T07:04:41;10.60;84.20
10903;DHT22;5504;47.312;11.060;2023-04-26T07:07:08;11.00;82.70
10903;DHT22;5504;47.312;11.060;2023-04-26T07:09:33;11.70;83.30
10903;DHT22;5504;47.312;11.060;2023-04-26T07:11:59;11.90;80.20
10903;DHT22;5504;47.312;11.060;2023-04-26T07:14:25;12.60;78.00
10903;DHT22;5504;47.312;11.060;2023-04-26T07:16:51;10.80;77.80
10903;DHT22;5504;47.312;11.060;2023-04-26T07:19:16;10.80;78.90
10903;DHT22;5504;47.312;11.060;2023-04-26T07:21:42;10.50;82.30
10903;DHT22;5504;47.312;11.060;2023-04-26T07:24:08;11.50;81.40
10903;DHT22;5504;47.312;11.060;2023-04-26T07:26:34;11.90;79.60
10903;DHT22;5504;47.312;11.060;2023-04-26T07:29:01;12.80;77.90
10903;DHT22;5504;47.312;11.060;2023-04-26T07:31:29;13.00;75.30
10903;DHT22;5504;47.312;11.060;2023-04-26T07:33:56;13.30;71.90
10903;DHT22;5504;47.312;11.060;2023-04-26T07:36:22;11.50;73.60
10903;DHT22;5504;47.312;11.060;2023-04-26T07:38:48;11.30;75.40
10903;DHT22;5504;47.312;11.060;2023-04-26T07:41:13;11.60;76.30
10903;DHT22;5504;47.312;11.060;2023-04-26T07:43:42;12.60;78.30
10903;DHT22;5504;47.312;11.060;2023-04-26T07:46:07;13.60;72.80
10903;DHT22;5504;47.312;11.060;2023-04-26T07:48:33;13.10;70.80
10903;DHT22;5504;47.312;11.060;2023-04-26T07:51:12;13.10;75.10
10903;DHT22;5504;47.312;11.060;2023-04-26T07:53:38;12.90;72.60
10903;DHT22;5504;47.312;11.060;2023-04-26T07:56:05;13.90;75.90
10903;DHT22;5504;47.312;11.060;2023-04-26T07:58:35;14.80;71.40
10903;DHT22;5504;47.312;11.060;2023-04-26T08:01:01;15.20;67.50
10903;DHT22;5504;47.312;11.060;2023-04-26T08:03:28;15.80;64.80
10903;DHT22;5504;47.312;11.060;2023-04-26T08:05:54;16.70;63.60
10903;DHT22;5504;47.312;11.060;2023-04-26T08:08:20;16.70;61.20
10903;DHT22;5504;47.312;11.060;2023-04-26T08:10:46;15.10;59.20
10903;DHT22;5504;47.312;11.060;2023-04-26T08:13:12;13.40;65.40
10903;DHT22;5504;47.312;11.060;2023-04-26T08:15:38;14.10;70.90
10903;DHT22;5504;47.312;11.060;2023-04-26T08:18:03;14.90;66.50
10903;DHT22;5504;47.312;11.060;2023-04-26T08:20:30;14.70;64.80
10903;DHT22;5504;47.312;11.060;2023-04-26T08:22:57;15.80;63.70
10903;DHT22;5504;47.312;11.060;2023-04-26T08:25:23;15.80;59.30
10903;DHT22;5504;47.312;11.060;2023-04-26T08:27:49;16.40;58.30
10903;DHT22;5504;47.312;11.060;2023-04-26T08:30:16;14.80;58.80
10903;DHT22;5504;47.312;11.060;2023-04-26T08:32:41;15.50;64.30
10903;DHT22;5504;47.312;11.060;2023-04-26T08:37:38;14.20;59.40
10903;DHT22;5504;47.312;11.060;2023-04-26T08:40:05;15.10;60.40
10903;DHT22;5504;47.312;11.060;2023-04-26T08:42:41;14.60;58.10
10903;DHT22;5504;47.312;11.060;2023-04-26T08:45:09;15.10;61.70
10903;DHT22;5504;47.312;11.060;2023-04-26T08:48:11;16.30;59.90
10903;DHT22;5504;47.312;11.060;2023-04-26T08:50:42;15.90;60.40
10903;DHT22;5504;47.312;11.060;2023-04-26T08:53:10;14.90;58.30
10903;DHT22;5504;47.312;11.060;2023-04-26T08:55:38;15.80;58.70
10903;DHT22;5504;47.312;11.060;2023-04-26T08:58:05;16.80;56.20
10903;DHT22;5504;47.312;11.060;2023-04-26T09:00:32;17.40;58.80
10903;DHT22;5504;47.312;11.060;2023-04-26T09:02:57;18.50;54.90
10903;DHT22;5504;47.312;11.060;2023-04-26T09:05:23;19.40;55.00
10903;DHT22;5504;47.312;11.060;2023-04-26T09:07:55;20.10;53.10
10903;DHT22;5504;47.312;11.060;2023-04-26T09:10:21;20.00;50.00
10903;DHT22;5504;47.312;11.060;2023-04-26T09:12:54;19.80;50.50
10903;DHT22;5504;47.312;11.060;2023-04-26T09:15:20;18.20;49.30
10903;DHT22;5504;47.312;11.060;2023-04-26T09:17:47;17.40;52.00
10903;DHT22;5504;47.312;11.060;2023-04-26T09:22:42;17.30;55.90
10903;DHT22;5504;47.312;11.060;2023-04-26T09:25:09;17.50;55.80
10903;DHT22;5504;47.312;11.060;2023-04-26T09:27:38;18.70;54.40
10903;DHT22;5504;47.312;11.060;2023-04-26T09:30:15;17.70;53.00
10903;DHT22;5504;47.312;11.060;2023-04-26T09:32:58;17.30;51.50
10903;DHT22;5504;47.312;11.060;2023-04-26T09:35:35;18.70;52.90
10903;DHT22;5504;47.312;11.060;2023-04-26T09:38:03;16.90;50.90
10903;DHT22;5504;47.312;11.060;2023-04-26T09:40:33;16.80;50.40
10903;DHT22;5504;47.312;11.060;2023-04-26T09:43:14;18.00;52.00
10903;DHT22;5504;47.312;11.060;2023-04-26T09:50:52;17.40;53.50
10903;DHT22;5504;47.312;11.060;2023-04-26T09:55:54;16.90;50.70
10903;DHT22;5504;47.312;11.060;2023-04-26T09:58:20;16.30;50.90
10903;DHT22;5504;47.312;11.060;2023-04-26T10:00:49;17.20;52.70
10903;DHT22;5504;47.312;11.060;2023-04-26T10:03:17;15.20;51.10
10903;DHT22;5504;47.312;11.060;2023-04-26T10:05:43;16.00;56.80
10903;DHT22;5504;47.312;11.060;2023-04-26T10:08:09;16.70;53.60
10903;DHT22;5504;47.312;11.060;2023-04-26T10:10:36;18.10;52.30
10903;DHT22;5504;47.312;11.060;2023-04-26T10:13:04;17.20;48.40
10903;DHT22;5504;47.312;11.060;2023-04-26T10:15:31;18.10;55.00
10903;DHT22;5504;47.312;11.060;2023-04-26T10:17:57;17.40;49.00
10903;DHT22;5504;47.312;11.060;2023-04-26T10:20:25;17.80;48.70
10903;DHT22;5504;47.312;11.060;2023-04-26T10:22:53;18.90;51.20
10903;DHT22;5504;47.312;11.060;2023-04-26T10:25:36;18.10;45.80
10903;DHT22;5504;47.312;11.060;2023-04-26T10:28:02;18.00;50.10
10903;DHT22;5504;47.312;11.060;2023-04-26T10:30:28;16.70;47.40
10903;DHT22;5504;47.312;11.060;2023-04-26T10:35:24;17.40;51.60
10903;DHT22;5504;47.312;11.060;2023-04-26T10:40:32;20.60;49.10
10903;DHT22;5504;47.312;11.060;2023-04-26T10:45:37;21.00;45.40
10903;DHT22;5504;47.312;11.060;2023-04-26T10:48:20;20.60;44.50
10903;DHT22;5504;47.312;11.060;2023-04-26T10:53:28;21.20;43.30
10903;DHT22;5504;47.312;11.060;2023-04-26T10:55:54;21.00;41.50
10903;DHT22;5504;47.312;11.060;2023-04-26T11:03:36;19.00;45.50
10903;DHT22;5504;47.312;11.060;2023-04-26T11:06:06;18.50;50.60
10903;DHT22;5504;47.312;11.060;2023-04-26T11:08:34;20.30;49.40
10903;DHT22;5504;47.312;11.060;2023-04-26T11:13:29;22.20;44.10
10903;DHT22;5504;47.312;11.060;2023-04-26T11:16:00;22.80;43.20
10903;DHT22;5504;47.312;11.060;2023-04-26T11:18:30;23.10;42.50
10903;DHT22;5504;47.312;11.060;2023-04-26T11:20:56;21.80;38.80
10903;DHT22;5504;47.312;11.060;2023-04-26T11:23:23;22.70;41.90
10903;DHT22;5504;47.312;11.060;2023-04-26T11:25:49;23.10;40.40
10903;DHT22;5504;47.312;11.060;2023-04-26T11:28:18;21.50;36.90
10903;DHT22;5504;47.312;11.060;2023-04-26T11:30:43;20.40;41.90
10903;DHT22;5504;47.312;11.060;2023-04-26T11:33:16;21.00;39.50
10903;DHT22;5504;47.312;11.060;2023-04-26T11:35:51;20.60;45.30
10903;DHT22;5504;47.312;11.060;2023-04-26T11:38:17;21.80;42.20
10903;DHT22;5504;47.312;11.060;2023-04-26T11:41:01;21.40;40.10
10903;DHT22;5504;47.312;11.060;2023-04-26T11:43:37;21.10;42.00
10903;DHT22;5504;47.312;11.060;2023-04-26T11:46:04;20.60;42.50
10903;DHT22;5504;47.312;11.060;2023-04-26T11:48:32;21.40;43.70
10903;DHT22;5504;47.312;11.060;2023-04-26T11:50:59;21.30;38.10
10903;DHT22;5504;47.312;11.060;2023-04-26T11:53:40;18.30;39.90
10903;DHT22;5504;47.312;11.060;2023-04-26T11:56:20;18.80;43.60
10903;DHT22;5504;47.312;11.060;2023-04-26T11:58:51;18.60;40.00
10903;DHT22;5504;47.312;11.060;2023-04-26T12:01:27;19.70;43.90
10903;DHT22;5504;47.312;11.060;2023-04-26T12:03:55;21.20;42.60
10903;DHT22;5504;47.312;11.060;2023-04-26T12:06:40;22.20;41.40
10903;DHT22;5504;47.312;11.060;2023-04-26T12:09:06;23.50;43.50
10903;DHT22;5504;47.312;11.060;2023-04-26T12:11:33;24.20;40.60
10903;DHT22;5504;47.312;11.060;2023-04-26T12:14:00;23.30;37.00
10903;DHT22;5504;47.312;11.060;2023-04-26T12:16:26;23.20;40.70
10903;DHT22;5504;47.312;11.060;2023-04-26T12:18:52;23.20;40.40
10903;DHT22;5504;47.312;11.060;2023-04-26T12:21:19;23.20;38.20
10903;DHT22;5504;47.312;11.060;2023-04-26T12:23:44;23.60;40.30
10903;DHT22;5504;47.312;11.060;2023-04-26T12:26:13;23.70;36.10
10903;DHT22;5504;47.312;11.060;2023-04-26T12:28:38;24.30;36.90
10903;DHT22;5504;47.312;11.060;2023-04-26T12:31:04;23.80;36.50
10903;DHT22;5504;47.312;11.060;2023-04-26T12:33:31;23.80;37.40
10903;DHT22;5504;47.312;11.060;2023-04-26T12:36:10;24.20;37.90
10903;DHT22;5504;47.312;11.060;2023-04-26T12:38:37;24.00;39.00
10903;DHT22;5504;47.312;11.060;2023-04-26T12:41:04;23.50;38.40
10903;DHT22;5504;47.312;11.060;2023-04-26T12:43:29;23.40;38.50
10903;DHT22;5504;47.312;11.060;2023-04-26T12:45:55;22.30;34.40
10903;DHT22;5504;47.312;11.060;2023-04-26T12:48:21;21.20;35.30
10903;DHT22;5504;47.312;11.060;2023-04-26T12:50:47;20.60;38.80
10903;DHT22;5504;47.312;11.060;2023-04-26T12:53:12;20.80;38.40
10903;DHT22;5504;47.312;11.060;2023-04-26T12:55:38;20.50;36.10
10903;DHT22;5504;47.312;11.060;2023-04-26T12:58:04;21.10;40.50
10903;DHT22;5504;47.312;11.060;2023-04-26T13:00:30;19.90;39.20
10903;DHT22;5504;47.312;11.060;2023-04-26T13:02:56;20.70;39.10
10903;DHT22;5504;47.312;11.060;2023-04-26T13:05:22;19.20;37.50
10903;DHT22;5504;47.312;11.060;2023-04-26T13:07:49;20.40;40.70
10903;DHT22;5504;47.312;11.060;2023-04-26T13:10:16;21.00;40.90
10903;DHT22;5504;47.312;11.060;2023-04-26T13:12:42;21.70;41.80
10903;DHT22;5504;47.312;11.060;2023-04-26T13:15:08;22.20;38.60
10903;DHT22;5504;47.312;11.060;2023-04-26T13:17:35;22.20;39.00
10903;DHT22;5504;47.312;11.060;2023-04-26T13:20:05;21.60;37.30
10903;DHT22;5504;47.312;11.060;2023-04-26T13:22:31;21.20;37.10
10903;DHT22;5504;47.312;11.060;2023-04-26T13:24:57;21.00;40.90
10903;DHT22;5504;47.312;11.060;2023-04-26T13:27:23;20.90;40.50
10903;DHT22;5504;47.312;11.060;2023-04-26T13:29:49;20.40;37.80
10903;DHT22;5504;47.312;11.060;2023-04-26T13:32:16;20.00;39.30
10903;DHT22;5504;47.312;11.060;2023-04-26T13:34:42;20.10;39.60
10903;DHT22;5504;47.312;11.060;2023-04-26T13:37:10;20.20;39.50
10903;DHT22;5504;47.312;11.060;2023-04-26T13:39:36;20.30;40.30
10903;DHT22;5504;47.312;11.060;2023-04-26T13:42:02;20.10;38.30
10903;DHT22;5504;47.312;11.060;2023-04-26T13:44:28;20.30;38.30
10903;DHT22;5504;47.312;11.060;2023-04-26T13:46:54;20.00;37.90
10903;DHT22;5504;47.312;11.060;2023-04-26T13:49:24;19.70;39.30
10903;DHT22;5504;47.312;11.060;2023-04-26T13:51:51;19.80;38.00
10903;DHT22;5504;47.312;11.060;2023-04-26T13:54:17;19.80;38.40
10903;DHT22;5504;47.312;11.060;2023-04-26T13:56:43;19.60;39.70
10903;DHT22;5504;47.312;11.060;2023-04-26T13:59:09;19.50;39.60
10903;DHT22;5504;47.312;11.060;2023-04-26T14:01:34;19.50;38.40
10903;DHT22;5504;47.312;11.060;2023-04-26T14:04:01;19.60;40.40
10903;DHT22;5504;47.312;11.060;2023-04-26T14:06:27;19.70;37.90
10903;DHT22;5504;47.312;11.060;2023-04-26T14:08:53;19.80;39.80
10903;DHT22;5504;47.312;11.060;2023-04-26T14:11:19;19.90;38.50
10903;DHT22;5504;47.312;11.060;2023-04-26T14:13:45;19.60;37.50
10903;DHT22;5504;47.312;11.060;2023-04-26T14:16:11;19.70;39.30
10903;DHT22;5504;47.312;11.060;2023-04-26T14:18:37;19.60;37.40
10903;DHT22;5504;47.312;11.060;2023-04-26T14:21:12;19.90;39.20
10903;DHT22;5504;47.312;11.060;2023-04-26T14:23:37;20.40;38.90
10903;DHT22;5504;47.312;11.060;2023-04-26T14:26:03;20.30;38.50
10903;DHT22;5504;47.312;11.060;2023-04-26T14:28:29;19.90;36.70
10903;DHT22;5504;47.312;11.060;2023-04-26T14:30:54;19.60;35.70
10903;DHT22;5504;47.312;11.060;2023-04-26T14:33:20;19.60;37.10
10903;DHT22;5504;47.312;11.060;2023-04-26T14:35:46;18.70;34.20
10903;DHT22;5504;47.312;11.060;2023-04-26T14:38:12;18.40;35.30
10903;DHT22;5504;47.312;11.060;2023-04-26T14:40:37;18.80;38.90
10903;DHT22;5504;47.312;11.060;2023-04-26T14:43:03;19.10;37.10
10903;DHT22;5504;47.312;11.060;2023-04-26T14:45:29;19.30;37.60
10903;DHT22;5504;47.312;11.060;2023-04-26T14:47:58;19.50;38.30
10903;DHT22;5504;47.312;11.060;2023-04-26T14:50:25;19.90;39.90
10903;DHT22;5504;47.312;11.060;2023-04-26T14:52:51;19.90;37.00
10903;DHT22;5504;47.312;11.060;2023-04-26T14:55:17;19.40;34.50
10903;DHT22;5504;47.312;11.060;2023-04-26T14:57:49;18.40;35.70
10903;DHT22;5504;47.312;11.060;2023-04-26T15:00:15;18.80;38.90
10903;DHT22;5504;47.312;11.060;2023-04-26T15:02:42;18.80;38.40
10903;DHT22;5504;47.312;11.060;2023-04-26T15:05:12;18.80;36.40
10903;DHT22;5504;47.312;11.060;2023-04-26T15:07:38;19.00;38.30
10903;DHT22;5504;47.312;11.060;2023-04-26T15:10:05;19.30;37.60
10903;DHT22;5504;47.312;11.060;2023-04-26T15:12:33;17.90;34.30
10903;DHT22;5504;47.312;11.060;2023-04-26T15:14:59;17.80;37.80
10903;DHT22;5504;47.312;11.060;2023-04-26T15:17:25;18.20;37.00
10903;DHT22;5504;47.312;11.060;2023-04-26T15:19:50;18.50;37.90
10903;DHT22;5504;47.312;11.060;2023-04-26T15:22:16;19.00;38.50
10903;DHT22;5504;47.312;11.060;2023-04-26T15:24:42;19.00;36.00
10903;DHT22;5504;47.312;11.060;2023-04-26T15:27:07;19.30;39.80
10903;DHT22;5504;47.312;11.060;2023-04-26T15:29:34;19.10;34.90
10903;DHT22;5504;47.312;11.060;2023-04-26T15:32:00;19.70;40.50
10903;DHT22;5504;47.312;11.060;2023-04-26T15:34:26;19.50;35.90
10903;DHT22;5504;47.312;11.060;2023-04-26T15:36:57;19.30;36.00
10903;DHT22;5504;47.312;11.060;2023-04-26T15:39:24;18.10;35.20
10903;DHT22;5504;47.312;11.060;2023-04-26T15:41:50;18.60;36.90
10903;DHT22;5504;47.312;11.060;2023-04-26T15:44:15;19.00;36.90
10903;DHT22;5504;47.312;11.060;2023-04-26T15:46:41;18.30;35.50
10903;DHT22;5504;47.312;11.060;2023-04-26T15:49:07;18.00;38.20
10903;DHT22;5504;47.312;11.060;2023-04-26T15:51:32;18.30;39.00
10903;DHT22;5504;47.312;11.060;2023-04-26T15:53:58;19.00;38.30
10903;DHT22;5504;47.312;11.060;2023-04-26T15:56:24;18.10;35.50
10903;DHT22;5504;47.312;11.060;2023-04-26T15:58:51;18.20;35.70
10903;DHT22;5504;47.312;11.060;2023-04-26T16:01:17;18.70;37.90
10903;DHT22;5504;47.312;11.060;2023-04-26T16:03:44;18.70;36.40
10903;DHT22;5504;47.312;11.060;2023-04-26T16:06:09;19.00;38.50
10903;DHT22;5504;47.312;11.060;2023-04-26T16:08:36;18.70;35.40
10903;DHT22;5504;47.312;11.060;2023-04-26T16:11:02;18.50;36.90
10903;DHT22;5504;47.312;11.060;2023-04-26T16:13:29;18.40;38.60
10903;DHT22;5504;47.312;11.060;2023-04-26T16:15:55;17.90;37.90
10903;DHT22;5504;47.312;11.060;2023-04-26T16:18:21;17.30;35.50
10903;DHT22;5504;47.312;11.060;2023-04-26T16:20:47;17.00;38.40
10903;DHT22;5504;47.312;11.060;2023-04-26T16:23:14;17.40;41.80
10903;DHT22;5504;47.312;11.060;2023-04-26T16:25:40;17.80;41.40
10903;DHT22;5504;47.312;11.060;2023-04-26T16:28:06;18.20;42.80
10903;DHT22;5504;47.312;11.060;2023-04-26T16:30:34;17.80;38.60
10903;DHT22;5504;47.312;11.060;2023-04-26T16:33:00;18.00;38.80
10903;DHT22;5504;47.312;11.060;2023-04-26T16:35:26;18.00;42.30
10903;DHT22;5504;47.312;11.060;2023-04-26T16:37:52;18.10;45.70